sensor_id;sensor_type;location;lat;lon;timestamp;temperature;humidity
28845;DHT22;15976;47.938;7.758;2023-03-20T00:02:16;10.40;95.90
28845;DHT22;15976;47.938;7.758;2023-03-20T00:04:43;10.30;95.80
28845;DHT22;15976;47.938;7.758;2023-03-20T00:07:11;10.30;96.00
28845;DHT22;15976;47.938;7.758;2023-03-20T00:09:38;10.30;96.10
28845;DHT22;15976;47.938;7.758;2023-03-20T00:12:06;10.40;96.10
28845;DHT22;15976;47.938;7.758;2023-03-20T00:14:33;10.30;96.10
28845;DHT22;15976;47.938;7.758;2023-03-20T00:17:00;10.40;96.20
28845;DHT22;15976;47.938;7.758;2023-03-20T00:19:28;10.40;96.20
28845;DHT22;15976;47.938;7.758;2023-03-20T00:21:56;10.40;96.50
28845;DHT22;15976;47.938;7.758;2023-03-20T00:24:24;10.50;96.20
28845;DHT22;15976;47.938;7.758;2023-03-20T00:26:52;10.50;96.20
28845;DHT22;15976;47.938;7.758;2023-03-20T00:29:28;10.50;95.90
28845;DHT22;15976;47.938;7.758;2023-03-20T00:31:57;10.40;95.90
28845;DHT22;15976;47.938;7.758;2023-03-20T00:34:26;10.40;96.10
28845;DHT22;15976;47.938;7.758;2023-03-20T00:36:57;10.40;96.00
28845;DHT22;15976;47.938;7.758;2023-03-20T00:39:28;10.40;96.10
28845;DHT22;15976;47.938;7.758;2023-03-20T00:42:01;10.50;96.30
28845;DHT22;15976;47.938;7.758;2023-03-20T00:44:38;10.40;96.20
28845;DHT22;15976;47.938;7.758;2023-03-20T00:47:21;10.50;96.10
28845;DHT22;15976;47.938;7.758;2023-03-20T00:49:52;10.50;96.10
28845;DHT22;15976;47.938;7.758;2023-03-20T00:52:20;10.50;95.90
28845;DHT22;15976;47.938;7.758;2023-03-20T00:54:50;10.50;95.90
28845;DHT22;15976;47.938;7.758;2023-03-20T01:02:40;10.50;95.60
28845;DHT22;15976;47.938;7.758;2023-03-20T01:05:07;10.50;95.50
28845;DHT22;15976;47.938;7.758;2023-03-20T01:07:34;10.50;95.30
28845;DHT22;15976;47.938;7.758;2023-03-20T01:10:03;10.50;95.30
28845;DHT22;15976;47.938;7.758;2023-03-20T01:12:30;10.50;95.10
28845;DHT22;15976;47.938;7.758;2023-03-20T01:14:57;10.50;95.30
28845;DHT22;15976;47.938;7.758;2023-03-20T01:17:26;10.60;94.80
28845;DHT22;15976;47.938;7.758;2023-03-20T01:19:54;10.60;94.70
28845;DHT22;15976;47.938;7.758;2023-03-20T01:22:22;10.60;94.50
28845;DHT22;15976;47.938;7.758;2023-03-20T01:24:49;10.60;94.30
28845;DHT22;15976;47.938;7.758;2023-03-20T01:27:17;10.50;93.90
28845;DHT22;15976;47.938;7.758;2023-03-20T01:29:45;10.50;94.00
28845;DHT22;15976;47.938;7.758;2023-03-20T01:32:18;10.50;93.80
28845;DHT22;15976;47.938;7.758;2023-03-20T01:34:48;10.50;93.70
28845;DHT22;15976;47.938;7.758;2023-03-20T01:37:33;10.50;93.50
28845;DHT22;15976;47.938;7.758;2023-03-20T01:40:02;10.50;93.30
28845;DHT22;15976;47.938;7.758;2023-03-20T01:42:32;10.50;93.10
28845;DHT22;15976;47.938;7.758;2023-03-20T01:44:59;10.40;92.90
28845;DHT22;15976;47.938;7.758;2023-03-20T01:47:28;10.30;92.80
28845;DHT22;15976;47.938;7.758;2023-03-20T01:50:28;10.30;92.80
28845;DHT22;15976;47.938;7.758;2023-03-20T01:53:08;10.30;92.60
28845;DHT22;15976;47.938;7.758;2023-03-20T01:55:42;10.30;92.70
28845;DHT22;15976;47.938;7.758;2023-03-20T01:58:18;10.20;92.50
28845;DHT22;15976;47.938;7.758;2023-03-20T02:00:47;10.20;92.50
28845;DHT22;15976;47.938;7.758;2023-03-20T02:03:18;10.20;92.50
28845;DHT22;15976;47.938;7.758;2023-03-20T02:06:05;10.20;92.60
28845;DHT22;15976;47.938;7.758;2023-03-20T02:09:11;10.20;92.60
28845;DHT22;15976;47.938;7.758;2023-03-20T02:11:42;10.30;92.50
28845;DHT22;15976;47.938;7.758;2023-03-20T02:14:12;10.40;92.40
28845;DHT22;15976;47.938;7.758;2023-03-20T02:16:51;10.40;92.20
28845;DHT22;15976;47.938;7.758;2023-03-20T02:20:06;10.50;92.00
28845;DHT22;15976;47.938;7.758;2023-03-20T02:34:22;10.60;91.40
28845;DHT22;15976;47.938;7.758;2023-03-20T02:45:55;10.50;91.10
28845;DHT22;15976;47.938;7.758;2023-03-20T02:54:05;10.60;91.00
28845;DHT22;15976;47.938;7.758;2023-03-20T02:59:40;10.60;90.90
28845;DHT22;15976;47.938;7.758;2023-03-20T03:02:20;10.60;91.00
28845;DHT22;15976;47.938;7.758;2023-03-20T03:04:58;10.60;91.00
28845;DHT22;15976;47.938;7.758;2023-03-20T03:07:29;10.60;90.80
28845;DHT22;15976;47.938;7.758;2023-03-20T03:10:09;10.60;90.80
28845;DHT22;15976;47.938;7.758;2023-03-20T03:12:39;10.60;90.70
28845;DHT22;15976;47.938;7.758;2023-03-20T03:15:31;10.60;90.60
28845;DHT22;15976;47.938;7.758;2023-03-20T03:18:02;10.60;90.60
28845;DHT22;15976;47.938;7.758;2023-03-20T03:20:37;10.60;90.40
28845;DHT22;15976;47.938;7.758;2023-03-20T03:23:05;10.60;90.40
28845;DHT22;15976;47.938;7.758;2023-03-20T03:25:38;10.60;90.30
28845;DHT22;15976;47.938;7.758;2023-03-20T03:31:05;10.60;90.40
28845;DHT22;15976;47.938;7.758;2023-03-20T03:33:36;10.60;90.30
28845;DHT22;15976;47.938;7.758;2023-03-20T03:36:26;10.60;90.10
28845;DHT22;15976;47.938;7.758;2023-03-20T03:41:43;10.60;89.90
28845;DHT22;15976;47.938;7.758;2023-03-20T03:44:34;10.60;89.80
28845;DHT22;15976;47.938;7.758;2023-03-20T03:47:32;10.60;89.70
28845;DHT22;15976;47.938;7.758;2023-03-20T03:50:16;10.60;89.70
28845;DHT22;15976;47.938;7.758;2023-03-20T03:52:46;10.60;89.70
28845;DHT22;15976;47.938;7.758;2023-03-20T03:55:22;10.60;89.60
28845;DHT22;15976;47.938;7.758;2023-03-20T03:58:07;10.60;89.40
28845;DHT22;15976;47.938;7.758;2023-03-20T04:00:36;10.60;89.30
28845;DHT22;15976;47.938;7.758;2023-03-20T04:03:06;10.60;89.10
28845;DHT22;15976;47.938;7.758;2023-03-20T04:05:35;10.60;88.80
28845;DHT22;15976;47.938;7.758;2023-03-20T04:08:04;10.60;88.60
28845;DHT22;15976;47.938;7.758;2023-03-20T04:10:32;10.60;88.40
28845;DHT22;15976;47.938;7.758;2023-03-20T04:12:59;10.60;88.20
28845;DHT22;15976;47.938;7.758;2023-03-20T04:15:26;10.60;88.10
28845;DHT22;15976;47.938;7.758;2023-03-20T04:17:54;10.60;88.20
28845;DHT22;15976;47.938;7.758;2023-03-20T04:20:22;10.60;88.10
28845;DHT22;15976;47.938;7.758;2023-03-20T04:22:49;10.60;88.10
28845;DHT22;15976;47.938;7.758;2023-03-20T04:25:22;10.60;87.90
28845;DHT22;15976;47.938;7.758;2023-03-20T04:27:52;10.60;87.80
28845;DHT22;15976;47.938;7.758;2023-03-20T04:30:59;10.60;87.60
28845;DHT22;15976;47.938;7.758;2023-03-20T04:33:40;10.60;87.80
28845;DHT22;15976;47.938;7.758;2023-03-20T04:36:21;10.60;88.40
28845;DHT22;15976;47.938;7.758;2023-03-20T04:38:50;10.50;87.90
28845;DHT22;15976;47.938;7.758;2023-03-20T04:41:17;10.60;88.00
28845;DHT22;15976;47.938;7.758;2023-03-20T04:43:50;10.60;87.80
28845;DHT22;15976;47.938;7.758;2023-03-20T04:46:17;10.60;87.70
28845;DHT22;15976;47.938;7.758;2023-03-20T04:48:45;10.50;87.90
28845;DHT22;15976;47.938;7.758;2023-03-20T04:51:12;10.60;87.80
28845;DHT22;15976;47.938;7.758;2023-03-20T04:53:44;10.50;87.60
28845;DHT22;15976;47.938;7.758;2023-03-20T04:56:11;10.50;87.90
28845;DHT22;15976;47.938;7.758;2023-03-20T04:58:39;10.60;88.10
28845;DHT22;15976;47.938;7.758;2023-03-20T05:01:07;10.60;88.10
28845;DHT22;15976;47.938;7.758;2023-03-20T05:03:34;10.60;88.00
28845;DHT22;15976;47.938;7.758;2023-03-20T05:06:01;10.60;87.80
28845;DHT22;15976;47.938;7.758;2023-03-20T05:08:29;10.60;87.80
28845;DHT22;15976;47.938;7.758;2023-03-20T05:10:59;10.60;87.80
28845;DHT22;15976;47.938;7.758;2023-03-20T05:13:51;10.60;87.70
28845;DHT22;15976;47.938;7.758;2023-03-20T05:16:39;10.60;87.70
28845;DHT22;15976;47.938;7.758;2023-03-20T05:19:18;10.60;87.60
28845;DHT22;15976;47.938;7.758;2023-03-20T05:21:56;10.60;87.40
28845;DHT22;15976;47.938;7.758;2023-03-20T05:24:43;10.60;87.30
28845;DHT22;15976;47.938;7.758;2023-03-20T05:27:27;10.60;87.50
28845;DHT22;15976;47.938;7.758;2023-03-20T05:30:20;10.60;87.40
28845;DHT22;15976;47.938;7.758;2023-03-20T05:33:06;10.50;87.30
28845;DHT22;15976;47.938;7.758;2023-03-20T05:35:52;10.50;87.40
28845;DHT22;15976;47.938;7.758;2023-03-20T05:38:38;10.50;87.20
28845;DHT22;15976;47.938;7.758;2023-03-20T05:41:28;10.50;87.50
28845;DHT22;15976;47.938;7.758;2023-03-20T05:44:07;10.50;87.70
28845;DHT22;15976;47.938;7.758;2023-03-20T05:46:55;10.50;87.80
28845;DHT22;15976;47.938;7.758;2023-03-20T05:50:14;10.50;87.60
28845;DHT22;15976;47.938;7.758;2023-03-20T05:53:15;10.40;87.20
28845;DHT22;15976;47.938;7.758;2023-03-20T05:56:35;10.40;87.90
28845;DHT22;15976;47.938;7.758;2023-03-20T05:59:26;10.40;88.00
28845;DHT22;15976;47.938;7.758;2023-03-20T06:02:15;10.40;87.90
28845;DHT22;15976;47.938;7.758;2023-03-20T06:05:09;10.40;88.00
28845;DHT22;15976;47.938;7.758;2023-03-20T06:07:56;10.40;88.00
28845;DHT22;15976;47.938;7.758;2023-03-20T06:10:52;10.50;88.10
28845;DHT22;15976;47.938;7.758;2023-03-20T06:14:11;10.50;88.00
28845;DHT22;15976;47.938;7.758;2023-03-20T06:17:01;10.60;87.90
28845;DHT22;15976;47.938;7.758;2023-03-20T06:20:13;10.60;87.80
28845;DHT22;15976;47.938;7.758;2023-03-20T06:22:51;10.60;87.40
28845;DHT22;15976;47.938;7.758;2023-03-20T06:25:19;10.60;87.20
28845;DHT22;15976;47.938;7.758;2023-03-20T06:27:46;10.60;87.10
28845;DHT22;15976;47.938;7.758;2023-03-20T06:30:14;10.70;87.10
28845;DHT22;15976;47.938;7.758;2023-03-20T06:32:42;10.80;87.00
28845;DHT22;15976;47.938;7.758;2023-03-20T06:35:11;10.80;86.50
28845;DHT22;15976;47.938;7.758;2023-03-20T06:37:43;10.90;86.20
28845;DHT22;15976;47.938;7.758;2023-03-20T06:40:15;10.90;85.80
28845;DHT22;15976;47.938;7.758;2023-03-20T06:42:42;11.00;85.40
28845;DHT22;15976;47.938;7.758;2023-03-20T06:45:10;11.10;85.00
28845;DHT22;15976;47.938;7.758;2023-03-20T06:47:38;11.10;85.40
28845;DHT22;15976;47.938;7.758;2023-03-20T06:50:06;11.20;84.30
28845;DHT22;15976;47.938;7.758;2023-03-20T06:52:35;11.30;83.90
28845;DHT22;15976;47.938;7.758;2023-03-20T06:55:18;11.30;83.40
28845;DHT22;15976;47.938;7.758;2023-03-20T06:57:46;11.50;83.00
28845;DHT22;15976;47.938;7.758;2023-03-20T07:00:16;11.50;82.40
28845;DHT22;15976;47.938;7.758;2023-03-20T07:02:43;11.50;82.30
28845;DHT22;15976;47.938;7.758;2023-03-20T07:05:14;11.50;82.50
28845;DHT22;15976;47.938;7.758;2023-03-20T07:07:41;11.50;82.30
28845;DHT22;15976;47.938;7.758;2023-03-20T07:10:09;11.50;82.10
28845;DHT22;15976;47.938;7.758;2023-03-20T07:12:38;11.50;82.10
28845;DHT22;15976;47.938;7.758;2023-03-20T07:15:05;11.50;81.90
28845;DHT22;15976;47.938;7.758;2023-03-20T07:17:33;11.50;81.80
28845;DHT22;15976;47.938;7.758;2023-03-20T07:20:00;11.50;81.70
28845;DHT22;15976;47.938;7.758;2023-03-20T07:22:28;11.50;81.70
28845;DHT22;15976;47.938;7.758;2023-03-20T07:25:14;11.50;81.60
28845;DHT22;15976;47.938;7.758;2023-03-20T07:27:41;11.40;81.60
28845;DHT22;15976;47.938;7.758;2023-03-20T07:30:12;11.40;81.40
28845;DHT22;15976;47.938;7.758;2023-03-20T07:32:39;11.50;81.10
28845;DHT22;15976;47.938;7.758;2023-03-20T07:35:07;11.40;80.70
28845;DHT22;15976;47.938;7.758;2023-03-20T07:37:35;11.40;80.80
28845;DHT22;15976;47.938;7.758;2023-03-20T07:40:03;11.30;81.20
28845;DHT22;15976;47.938;7.758;2023-03-20T07:42:54;11.30;81.00
28845;DHT22;15976;47.938;7.758;2023-03-20T07:45:50;11.30;81.60
28845;DHT22;15976;47.938;7.758;2023-03-20T07:48:18;11.40;81.60
28845;DHT22;15976;47.938;7.758;2023-03-20T07:50:45;11.40;81.60
28845;DHT22;15976;47.938;7.758;2023-03-20T07:53:12;11.50;81.30
28845;DHT22;15976;47.938;7.758;2023-03-20T07:55:39;11.60;81.30
28845;DHT22;15976;47.938;7.758;2023-03-20T07:58:09;11.60;81.00
28845;DHT22;15976;47.938;7.758;2023-03-20T08:00:36;11.70;80.90
28845;DHT22;15976;47.938;7.758;2023-03-20T08:03:03;11.70;80.50
28845;DHT22;15976;47.938;7.758;2023-03-20T08:05:30;11.80;80.40
28845;DHT22;15976;47.938;7.758;2023-03-20T08:07:58;11.90;79.90
28845;DHT22;15976;47.938;7.758;2023-03-20T08:10:25;12.00;79.80
28845;DHT22;15976;47.938;7.758;2023-03-20T08:12:52;12.10;79.50
28845;DHT22;15976;47.938;7.758;2023-03-20T08:15:20;12.20;78.80
28845;DHT22;15976;47.938;7.758;2023-03-20T08:17:47;12.40;78.30
28845;DHT22;15976;47.938;7.758;2023-03-20T08:20:15;12.50;78.00
28845;DHT22;15976;47.938;7.758;2023-03-20T08:22:43;12.40;77.70
28845;DHT22;15976;47.938;7.758;2023-03-20T08:25:11;12.50;78.00
28845;DHT22;15976;47.938;7.758;2023-03-20T08:27:38;12.70;77.60
28845;DHT22;15976;47.938;7.758;2023-03-20T08:30:05;12.90;76.80
28845;DHT22;15976;47.938;7.758;2023-03-20T08:32:32;13.10;76.20
28845;DHT22;15976;47.938;7.758;2023-03-20T08:34:59;13.30;75.50
28845;DHT22;15976;47.938;7.758;2023-03-20T08:37:27;13.50;74.70
28845;DHT22;15976;47.938;7.758;2023-03-20T08:39:54;13.70;74.10
28845;DHT22;15976;47.938;7.758;2023-03-20T08:42:21;13.80;73.30
28845;DHT22;15976;47.938;7.758;2023-03-20T08:44:48;13.90;72.80
28845;DHT22;15976;47.938;7.758;2023-03-20T08:47:15;14.00;72.20
28845;DHT22;15976;47.938;7.758;2023-03-20T08:49:43;14.00;71.80
28845;DHT22;15976;47.938;7.758;2023-03-20T08:52:10;14.00;71.70
28845;DHT22;15976;47.938;7.758;2023-03-20T08:54:37;14.10;71.50
28845;DHT22;15976;47.938;7.758;2023-03-20T08:57:04;14.10;71.00
28845;DHT22;15976;47.938;7.758;2023-03-20T08:59:31;14.10;70.80
28845;DHT22;15976;47.938;7.758;2023-03-20T09:01:58;14.10;70.50
28845;DHT22;15976;47.938;7.758;2023-03-20T09:04:25;14.00;70.50
28845;DHT22;15976;47.938;7.758;2023-03-20T09:06:53;14.00;70.80
28845;DHT22;15976;47.938;7.758;2023-03-20T09:09:21;14.00;70.80
28845;DHT22;15976;47.938;7.758;2023-03-20T09:11:56;14.00;70.60
28845;DHT22;15976;47.938;7.758;2023-03-20T09:14:24;14.20;70.10
28845;DHT22;15976;47.938;7.758;2023-03-20T09:16:52;14.20;69.60
28845;DHT22;15976;47.938;7.758;2023-03-20T09:19:19;14.40;69.30
28845;DHT22;15976;47.938;7.758;2023-03-20T09:21:47;14.40;68.80
28845;DHT22;15976;47.938;7.758;2023-03-20T09:24:16;14.30;68.10
28845;DHT22;15976;47.938;7.758;2023-03-20T09:26:42;14.10;67.80
28845;DHT22;15976;47.938;7.758;2023-03-20T09:29:09;14.00;68.00
28845;DHT22;15976;47.938;7.758;2023-03-20T09:31:38;14.00;67.80
28845;DHT22;15976;47.938;7.758;2023-03-20T09:34:05;14.10;67.30
28845;DHT22;15976;47.938;7.758;2023-03-20T09:36:33;14.10;66.40
28845;DHT22;15976;47.938;7.758;2023-03-20T09:39:02;14.20;66.60
28845;DHT22;15976;47.938;7.758;2023-03-20T09:41:30;14.50;66.30
28845;DHT22;15976;47.938;7.758;2023-03-20T09:50:33;15.40;63.60
28845;DHT22;15976;47.938;7.758;2023-03-20T09:53:09;15.50;63.00
28845;DHT22;15976;47.938;7.758;2023-03-20T09:55:39;15.50;63.10
28845;DHT22;15976;47.938;7.758;2023-03-20T10:00:36;15.40;62.90
28845;DHT22;15976;47.938;7.758;2023-03-20T10:03:06;15.40;63.00
28845;DHT22;15976;47.938;7.758;2023-03-20T10:05:55;15.30;62.50
28845;DHT22;15976;47.938;7.758;2023-03-20T10:08:33;15.20;61.90
28845;DHT22;15976;47.938;7.758;2023-03-20T10:19:16;14.90;62.00
28845;DHT22;15976;47.938;7.758;2023-03-20T10:21:49;15.20;61.70
28845;DHT22;15976;47.938;7.758;2023-03-20T10:24:43;15.30;61.20
28845;DHT22;15976;47.938;7.758;2023-03-20T10:27:25;15.40;60.70
28845;DHT22;15976;47.938;7.758;2023-03-20T10:30:25;15.60;60.10
28845;DHT22;15976;47.938;7.758;2023-03-20T10:33:15;15.70;59.40
28845;DHT22;15976;47.938;7.758;2023-03-20T10:41:09;16.20;58.60
28845;DHT22;15976;47.938;7.758;2023-03-20T10:43:40;16.30;57.60
28845;DHT22;15976;47.938;7.758;2023-03-20T10:48:56;16.60;57.30
28845;DHT22;15976;47.938;7.758;2023-03-20T10:51:38;16.70;56.10
28845;DHT22;15976;47.938;7.758;2023-03-20T10:54:23;16.90;55.00
28845;DHT22;15976;47.938;7.758;2023-03-20T10:56:52;16.90;54.80
28845;DHT22;15976;47.938;7.758;2023-03-20T10:59:28;16.90;53.30
28845;DHT22;15976;47.938;7.758;2023-03-20T11:01:58;16.60;53.40
28845;DHT22;15976;47.938;7.758;2023-03-20T11:04:25;16.50;53.90
28845;DHT22;15976;47.938;7.758;2023-03-20T11:09:26;16.40;54.30
28845;DHT22;15976;47.938;7.758;2023-03-20T11:11:57;16.40;54.10
28845;DHT22;15976;47.938;7.758;2023-03-20T11:14:31;16.30;54.20
28845;DHT22;15976;47.938;7.758;2023-03-20T11:17:00;16.20;53.90
28845;DHT22;15976;47.938;7.758;2023-03-20T11:19:38;16.20;54.30
28845;DHT22;15976;47.938;7.758;2023-03-20T11:22:25;16.20;54.30
28845;DHT22;15976;47.938;7.758;2023-03-20T11:24:57;15.90;54.70
28845;DHT22;15976;47.938;7.758;2023-03-20T11:27:30;15.90;55.20
28845;DHT22;15976;47.938;7.758;2023-03-20T11:30:04;15.90;55.10
28845;DHT22;15976;47.938;7.758;2023-03-20T11:37:54;16.40;53.90
28845;DHT22;15976;47.938;7.758;2023-03-20T11:40:39;16.50;53.30
28845;DHT22;15976;47.938;7.758;2023-03-20T11:43:19;16.40;52.40
28845;DHT22;15976;47.938;7.758;2023-03-20T11:45:52;16.40;52.30
28845;DHT22;15976;47.938;7.758;2023-03-20T11:48:24;16.20;52.30
28845;DHT22;15976;47.938;7.758;2023-03-20T11:51:04;16.30;53.20
28845;DHT22;15976;47.938;7.758;2023-03-20T11:56:21;16.50;52.70
28845;DHT22;15976;47.938;7.758;2023-03-20T11:59:13;16.70;52.00
28845;DHT22;15976;47.938;7.758;2023-03-20T12:01:44;16.80;51.60
28845;DHT22;15976;47.938;7.758;2023-03-20T12:04:18;17.10;51.60
28845;DHT22;15976;47.938;7.758;2023-03-20T12:17:44;18.50;49.00
28845;DHT22;15976;47.938;7.758;2023-03-20T12:20:22;18.90;48.90
28845;DHT22;15976;47.938;7.758;2023-03-20T12:28:23;18.80;47.20
28845;DHT22;15976;47.938;7.758;2023-03-20T12:31:12;18.60;46.80
28845;DHT22;15976;47.938;7.758;2023-03-20T12:33:52;18.40;46.80
28845;DHT22;15976;47.938;7.758;2023-03-20T12:36:34;18.20;47.30
28845;DHT22;15976;47.938;7.758;2023-03-20T12:39:05;17.90;47.40
28845;DHT22;15976;47.938;7.758;2023-03-20T12:52:15;17.40;48.20
28845;DHT22;15976;47.938;7.758;2023-03-20T13:00:23;16.90;49.10
28845;DHT22;15976;47.938;7.758;2023-03-20T13:11:48;17.20;49.20
28845;DHT22;15976;47.938;7.758;2023-03-20T13:14:34;17.60;48.90
28845;DHT22;15976;47.938;7.758;2023-03-20T13:31:01;21.50;42.30
28845;DHT22;15976;47.938;7.758;2023-03-20T13:33:49;21.40;42.40
28845;DHT22;15976;47.938;7.758;2023-03-20T13:39:36;20.40;42.40
28845;DHT22;15976;47.938;7.758;2023-03-20T13:42:03;20.20;43.00
28845;DHT22;15976;47.938;7.758;2023-03-20T13:44:33;20.00;42.90
28845;DHT22;15976;47.938;7.758;2023-03-20T13:47:04;19.80;42.90
28845;DHT22;15976;47.938;7.758;2023-03-20T13:52:43;19.30;43.10
28845;DHT22;15976;47.938;7.758;2023-03-20T13:55:25;19.30;43.50
28845;DHT22;15976;47.938;7.758;2023-03-20T14:00:58;19.10;43.70
28845;DHT22;15976;47.938;7.758;2023-03-20T14:03:36;19.10;44.10
28845;DHT22;15976;47.938;7.758;2023-03-20T14:06:17;18.90;44.00
28845;DHT22;15976;47.938;7.758;2023-03-20T14:08:52;18.80;44.00
28845;DHT22;15976;47.938;7.758;2023-03-20T14:13:55;18.20;44.50
28845;DHT22;15976;47.938;7.758;2023-03-20T14:16:27;18.10;44.80
28845;DHT22;15976;47.938;7.758;2023-03-20T14:19:18;18.00;44.80
28845;DHT22;15976;47.938;7.758;2023-03-20T14:21:54;17.70;44.70
28845;DHT22;15976;47.938;7.758;2023-03-20T14:24:23;17.50;45.20
28845;DHT22;15976;47.938;7.758;2023-03-20T14:26:56;17.40;45.40
28845;DHT22;15976;47.938;7.758;2023-03-20T14:29:34;17.40;45.70
28845;DHT22;15976;47.938;7.758;2023-03-20T14:37:37;17.60;45.90
28845;DHT22;15976;47.938;7.758;2023-03-20T14:40:15;17.60;45.60
28845;DHT22;15976;47.938;7.758;2023-03-20T14:46:24;17.70;45.90
28845;DHT22;15976;47.938;7.758;2023-03-20T14:48:54;17.90;45.70
28845;DHT22;15976;47.938;7.758;2023-03-20T14:51:39;18.10;45.50
28845;DHT22;15976;47.938;7.758;2023-03-20T14:54:26;18.20;45.40
28845;DHT22;15976;47.938;7.758;2023-03-20T14:56:54;18.20;45.20
28845;DHT22;15976;47.938;7.758;2023-03-20T14:59:33;18.20;45.10
28845;DHT22;15976;47.938;7.758;2023-03-20T15:02:01;18.70;45.20
28845;DHT22;15976;47.938;7.758;2023-03-20T15:04:36;19.40;44.30
28845;DHT22;15976;47.938;7.758;2023-03-20T15:07:13;19.90;42.90
28845;DHT22;15976;47.938;7.758;2023-03-20T15:09:44;20.30;42.40
28845;DHT22;15976;47.938;7.758;2023-03-20T15:12:15;20.90;41.60
28845;DHT22;15976;47.938;7.758;2023-03-20T15:20:21;23.20;38.20
28845;DHT22;15976;47.938;7.758;2023-03-20T15:22:51;23.50;37.90
28845;DHT22;15976;47.938;7.758;2023-03-20T15:25:20;23.50;37.90
28845;DHT22;15976;47.938;7.758;2023-03-20T15:27:48;23.50;37.30
28845;DHT22;15976;47.938;7.758;2023-03-20T15:30:19;23.30;36.90
28845;DHT22;15976;47.938;7.758;2023-03-20T15:32:48;23.20;37.50
28845;DHT22;15976;47.938;7.758;2023-03-20T15:35:18;23.60;37.20
28845;DHT22;15976;47.938;7.758;2023-03-20T15:37:48;24.10;36.50
28845;DHT22;15976;47.938;7.758;2023-03-20T15:40:28;24.60;36.00
28845;DHT22;15976;47.938;7.758;2023-03-20T15:43:27;25.20;34.30
28845;DHT22;15976;47.938;7.758;2023-03-20T15:45:56;25.30;33.70
28845;DHT22;15976;47.938;7.758;2023-03-20T15:48:49;25.30;33.20
28845;DHT22;15976;47.938;7.758;2023-03-20T15:51:18;25.60;32.90
28845;DHT22;15976;47.938;7.758;2023-03-20T15:53:50;25.90;33.20
28845;DHT22;15976;47.938;7.758;2023-03-20T15:56:18;25.70;32.20
28845;DHT22;15976;47.938;7.758;2023-03-20T15:58:47;25.10;32.90
28845;DHT22;15976;47.938;7.758;2023-03-20T16:01:21;24.60;33.50
28845;DHT22;15976;47.938;7.758;2023-03-20T16:03:49;24.40;33.80
28845;DHT22;15976;47.938;7.758;2023-03-20T16:06:20;24.50;34.20
28845;DHT22;15976;47.938;7.758;2023-03-20T16:09:04;24.90;33.60
28845;DHT22;15976;47.938;7.758;2023-03-20T16:11:41;25.20;32.70
28845;DHT22;15976;47.938;7.758;2023-03-20T16:14:19;25.40;32.70
28845;DHT22;15976;47.938;7.758;2023-03-20T16:16:49;25.60;32.60
28845;DHT22;15976;47.938;7.758;2023-03-20T16:19:17;25.50;32.70
28845;DHT22;15976;47.938;7.758;2023-03-20T16:21:53;25.30;32.50
28845;DHT22;15976;47.938;7.758;2023-03-20T16:24:43;24.90;32.10
28845;DHT22;15976;47.938;7.758;2023-03-20T16:27:16;24.50;32.40
28845;DHT22;15976;47.938;7.758;2023-03-20T16:29:49;24.10;33.20
28845;DHT22;15976;47.938;7.758;2023-03-20T16:32:23;23.60;33.70
28845;DHT22;15976;47.938;7.758;2023-03-20T16:34:56;23.10;34.40
28845;DHT22;15976;47.938;7.758;2023-03-20T16:37:36;22.70;34.90
28845;DHT22;15976;47.938;7.758;2023-03-20T16:40:09;22.20;35.40
28845;DHT22;15976;47.938;7.758;2023-03-20T16:42:37;21.70;36.10
28845;DHT22;15976;47.938;7.758;2023-03-20T16:45:05;21.10;36.70
28845;DHT22;15976;47.938;7.758;2023-03-20T16:47:41;20.50;37.50
28845;DHT22;15976;47.938;7.758;2023-03-20T16:50:18;19.80;38.50
28845;DHT22;15976;47.938;7.758;2023-03-20T16:52:49;19.20;39.50
28845;DHT22;15976;47.938;7.758;2023-03-20T16:55:21;18.80;40.40
28845;DHT22;15976;47.938;7.758;2023-03-20T16:57:53;18.40;41.00
28845;DHT22;15976;47.938;7.758;2023-03-20T17:00:31;18.10;41.70
28845;DHT22;15976;47.938;7.758;2023-03-20T17:05:47;17.50;42.90
28845;DHT22;15976;47.938;7.758;2023-03-20T17:08:21;17.30;43.50
28845;DHT22;15976;47.938;7.758;2023-03-20T17:10:54;17.10;44.00
28845;DHT22;15976;47.938;7.758;2023-03-20T17:13:21;17.00;44.90
28845;DHT22;15976;47.938;7.758;2023-03-20T17:15:48;16.80;45.60
28845;DHT22;15976;47.938;7.758;2023-03-20T17:18:15;16.70;45.90
28845;DHT22;15976;47.938;7.758;2023-03-20T17:20:42;16.50;46.60
28845;DHT22;15976;47.938;7.758;2023-03-20T17:23:12;16.40;47.50
28845;DHT22;15976;47.938;7.758;2023-03-20T17:25:40;16.20;48.10
28845;DHT22;15976;47.938;7.758;2023-03-20T17:28:14;16.10;48.60
28845;DHT22;15976;47.938;7.758;2023-03-20T17:30:42;16.00;49.10
28845;DHT22;15976;47.938;7.758;2023-03-20T17:33:16;15.80;49.50
28845;DHT22;15976;47.938;7.758;2023-03-20T17:35:43;15.70;50.10
28845;DHT22;15976;47.938;7.758;2023-03-20T17:38:16;15.60;50.50
28845;DHT22;15976;47.938;7.758;2023-03-20T17:40:44;15.50;50.90
28845;DHT22;15976;47.938;7.758;2023-03-20T17:43:12;15.30;51.10
28845;DHT22;15976;47.938;7.758;2023-03-20T17:45:41;15.20;51.50
28845;DHT22;15976;47.938;7.758;2023-03-20T17:48:16;15.10;51.30
28845;DHT22;15976;47.938;7.758;2023-03-20T17:50:44;14.90;51.80
28845;DHT22;15976;47.938;7.758;2023-03-20T17:53:24;14.90;52.30
28845;DHT22;15976;47.938;7.758;2023-03-20T17:55:54;14.80;52.80
28845;DHT22;15976;47.938;7.758;2023-03-20T17:58:22;14.80;52.60
28845;DHT22;15976;47.938;7.758;2023-03-20T18:00:50;14.70;52.30
28845;DHT22;15976;47.938;7.758;2023-03-20T18:03:18;14.70;52.30
28845;DHT22;15976;47.938;7.758;2023-03-20T18:05:48;14.60;52.70
28845;DHT22;15976;47.938;7.758;2023-03-20T18:08:20;14.60;52.90
28845;DHT22;15976;47.938;7.758;2023-03-20T18:10:49;14.60;53.20
28845;DHT22;15976;47.938;7.758;2023-03-20T18:13:22;14.50;53.40
28845;DHT22;15976;47.938;7.758;2023-03-20T18:15:51;14.50;53.60
28845;DHT22;15976;47.938;7.758;2023-03-20T18:18:19;14.40;54.00
28845;DHT22;15976;47.938;7.758;2023-03-20T18:20:50;14.30;54.40
28845;DHT22;15976;47.938;7.758;2023-03-20T18:23:18;14.20;54.90
28845;DHT22;15976;47.938;7.758;2023-03-20T18:25:45;14.10;55.40
28845;DHT22;15976;47.938;7.758;2023-03-20T18:28:15;14.00;55.70
28845;DHT22;15976;47.938;7.758;2023-03-20T18:30:49;13.90;55.50
28845;DHT22;15976;47.938;7.758;2023-03-20T18:33:17;13.80;56.10
28845;DHT22;15976;47.938;7.758;2023-03-20T18:35:45;13.70;55.60
28845;DHT22;15976;47.938;7.758;2023-03-20T18:38:12;13.60;55.70
28845;DHT22;15976;47.938;7.758;2023-03-20T18:40:40;13.50;56.00
28845;DHT22;15976;47.938;7.758;2023-03-20T18:43:09;13.50;56.10
28845;DHT22;15976;47.938;7.758;2023-03-20T18:45:36;13.40;55.80
28845;DHT22;15976;47.938;7.758;2023-03-20T18:48:08;13.30;55.90
28845;DHT22;15976;47.938;7.758;2023-03-20T18:50:40;13.20;56.20
28845;DHT22;15976;47.938;7.758;2023-03-20T18:53:15;13.10;56.60